Time;durP1;ratioP1;P1;durP2;ratioP2;P2;SDS_P1;SDS_P2;PMS_P1;PMS_P2;Temp;Humidity;BMP_temperature;BMP_pressure;BME280_temperature;BME280_humidity;BME280_pressure;Samples;Min_cycle;Max_cycle;Signal;HPM_P1;HPM_P2
2023/08/30 05:19:31;;;;;;;;;;;;;;;17.33;56.34;96268.63;4245972;27;10179;-61
2023/08/30 05:21:33;;;;;;;;;;;;;;;17.63;55.88;96270.84;4243046;27;5616;-62
2023/08/30 05:23:36;;;;;;;;;;;;;;;17.87;55.39;96269.53;4239799;27;5725;-61
2023/08/30 05:25:43;;;;;;;;;;;;;;;18.06;54.89;96261.97;4243362;27;5590;-62
2023/08/30 05:27:45;;;;;;;;;;;;;;;18.23;54.57;96269.84;4246675;27;5984;-62
2023/08/30 05:29:48;;;;;;;;;;;;;;;18.34;54.28;96267.00;4234041;27;5822;-62
2023/08/30 05:31:51;;;;;;;;;;;;;;;18.46;54.08;96263.38;4233731;27;5808;-62
2023/08/30 05:33:53;;;;;;;;;;;;;;;18.55;54.01;96259.97;4248624;27;5610;-62
2023/08/30 05:35:57;;;;;;;;;;;;;;;18.65;53.73;96263.81;4249599;27;7998;-62
2023/08/30 05:37:59;;;;;;;;;;;;;;;18.70;53.23;96258.50;4242795;27;5605;-62
2023/08/30 05:40:02;;;;;;;;;;;;;;;18.76;53.28;96260.94;4237765;27;5630;-62
2023/08/30 05:42:05;;;;;;;;;;;;;;;18.82;53.19;96264.47;4240604;27;5676;-62
2023/08/30 05:44:09;;;;;;;;;;;;;;;18.86;52.80;96268.25;4242949;27;5686;-62
2023/08/30 05:46:14;;;;;;;;;;;;;;;18.91;52.66;96268.25;4232287;27;5764;-62
2023/08/30 05:48:18;;;;;;;;;;;;;;;18.95;52.33;96268.56;4241267;27;5605;-61
2023/08/30 05:50:21;;;;;;;;;;;;;;;18.97;52.56;96269.94;4248249;27;5797;-61
2023/08/30 05:52:25;;;;;;;;;;;;;;;19.01;52.23;96268.34;4247301;27;5610;-61
2023/08/30 05:54:31;;;;;;;;;;;;;;;19.04;52.18;96261.69;4239887;27;5583;-61
2023/08/30 05:56:34;;;;;;;;;;;;;;;19.07;52.20;96256.59;4263603;27;5591;-61
2023/08/30 05:58:37;;;;;;;;;;;;;;;19.10;52.13;96271.34;4237787;27;5617;-62
2023/08/30 06:00:40;;;;;;;;;;;;;;;19.13;52.05;96268.13;4236730;27;5594;-62
2023/08/30 06:02:44;;;;;;;;;;;;;;;19.15;51.69;96274.88;4251445;27;5583;-61
2023/08/30 06:04:47;;;;;;;;;;;;;;;19.17;51.64;96271.91;4248151;27;5678;-61
2023/08/30 06:06:50;;;;;;;;;;;;;;;19.20;51.48;96276.75;4252474;27;5764;-62
2023/08/30 06:08:55;;;;;;;;;;;;;;;19.23;51.33;96280.78;4242527;27;5839;-62
2023/08/30 06:10:58;;;;;;;;;;;;;;;19.26;51.45;96288.31;4248221;27;5597;-61
2023/08/30 06:13:01;;;;;;;;;;;;;;;19.28;51.19;96288.84;4233112;27;5621;-61
2023/08/30 06:15:04;;;;;;;;;;;;;;;19.28;51.15;96288.84;4246883;27;5606;-61
2023/08/30 06:17:06;;;;;;;;;;;;;;;19.32;51.22;96297.97;4245135;27;5099;-62
2023/08/30 06:19:09;;;;;;;;;;;;;;;19.32;51.11;96292.63;4235716;27;5699;-62
2023/08/30 06:21:12;;;;;;;;;;;;;;;19.35;50.95;96300.13;4220555;28;5601;-62
2023/08/30 06:23:16;;;;;;;;;;;;;;;19.35;51.00;96295.56;4219506;28;5669;-63
2023/08/30 06:25:20;;;;;;;;;;;;;;;19.38;50.75;96299.63;4219214;28;5664;-63
2023/08/30 06:27:24;;;;;;;;;;;;;;;19.39;50.74;96301.25;4235395;27;5579;-63
2023/08/30 06:29:27;;;;;;;;;;;;;;;19.41;50.41;96299.91;4236422;27;5843;-63
2023/08/30 06:31:31;;;;;;;;;;;;;;;19.43;50.51;96307.69;4228062;28;5605;-63
2023/08/30 06:33:35;;;;;;;;;;;;;;;19.44;50.16;96303.94;4235141;28;5638;-63
2023/08/30 06:35:39;;;;;;;;;;;;;;;19.47;50.29;96304.22;4227737;28;5824;-64
2023/08/30 06:37:42;;;;;;;;;;;;;;;19.48;50.15;96297.81;4228186;28;5602;-63
2023/08/30 06:39:45;;;;;;;;;;;;;;;19.51;50.05;96299.16;4233461;27;5700;-63
2023/08/30 06:41:49;;;;;;;;;;;;;;;19.51;49.97;96309.88;4229837;28;5625;-63
2023/08/30 06:43:53;;;;;;;;;;;;;;;19.54;49.86;96308.53;4227731;28;5709;-62
2023/08/30 06:45:58;;;;;;;;;;;;;;;19.55;50.02;96310.16;4229067;28;5804;-63
2023/08/30 06:48:01;;;;;;;;;;;;;;;19.55;49.74;96308.31;4227739;28;5751;-63
2023/08/30 06:50:06;;;;;;;;;;;;;;;19.57;49.67;96306.16;4238073;27;5594;-63
2023/08/30 06:52:09;;;;;;;;;;;;;;;19.58;49.86;96305.09;4224198;27;5668;-63
2023/08/30 06:54:12;;;;;;;;;;;;;;;19.60;49.69;96313.72;4218738;28;5793;-63
2023/08/30 06:56:15;;;;;;;;;;;;;;;19.62;49.61;96308.09;4235017;28;5610;-63
2023/08/30 06:58:20;;;;;;;;;;;;;;;19.63;49.59;96307.81;4230278;28;5602;-63
2023/08/30 07:00:23;;;;;;;;;;;;;;;19.65;49.51;96313.72;4227898;28;5621;-63
2023/08/30 07:02:27;;;;;;;;;;;;;;;19.66;49.65;96307.28;4235798;27;5676;-63
2023/08/30 07:04:31;;;;;;;;;;;;;;;19.67;49.67;96308.09;4227459;28;5594;-63
2023/08/30 07:06:34;;;;;;;;;;;;;;;19.69;49.65;96301.38;4229902;27;5584;-63
2023/08/30 07:08:37;;;;;;;;;;;;;;;19.69;49.48;96300.59;4220938;27;5728;-62
2023/08/30 07:10:40;;;;;;;;;;;;;;;19.70;49.34;96303.00;4241921;27;5587;-63
2023/08/30 07:12:45;;;;;;;;;;;;;;;19.70;49.34;96303.00;4223097;28;5767;-63
2023/08/30 07:14:49;;;;;;;;;;;;;;;19.72;49.39;96308.13;4221651;27;5994;-62
2023/08/30 07:16:52;;;;;;;;;;;;;;;19.74;49.03;96309.47;4219344;27;7735;-62
2023/08/30 07:18:55;;;;;;;;;;;;;;;19.76;49.14;96311.88;4218244;27;5760;-62
2023/08/30 07:20:57;;;;;;;;;;;;;;;19.76;49.01;96310.00;4230948;27;5664;-62
2023/08/30 07:23:00;;;;;;;;;;;;;;;19.78;48.77;96309.75;4229204;27;6294;-63
2023/08/30 07:25:02;;;;;;;;;;;;;;;19.79;49.09;96311.34;4234089;27;5628;-63
2023/08/30 07:27:07;;;;;;;;;;;;;;;19.81;48.98;96306.53;4224462;27;5586;-63
2023/08/30 07:29:10;;;;;;;;;;;;;;;19.83;48.80;96306.28;4234741;27;5610;-62
2023/08/30 07:31:16;;;;;;;;;;;;;;;19.85;48.82;96304.13;4222542;27;5741;-66
2023/08/30 07:33:19;;;;;;;;;;;;;;;19.86;48.93;96316.47;4227799;27;5591;-68
2023/08/30 07:35:22;;;;;;;;;;;;;;;19.86;48.50;96311.13;4229081;27;5609;-64
2023/08/30 07:37:26;;;;;;;;;;;;;;;19.87;48.48;96323.47;4233123;27;5895;-64
2023/08/30 07:39:29;;;;;;;;;;;;;;;19.89;48.66;96324.78;4217761;28;5661;-66
2023/08/30 07:41:32;;;;;;;;;;;;;;;19.91;48.41;96325.34;4233082;27;5583;-67
2023/08/30 07:43:35;;;;;;;;;;;;;;;19.92;48.52;96323.47;4240843;27;5614;-67
2023/08/30 07:45:38;;;;;;;;;;;;;;;19.93;48.33;96317.03;4233332;27;5733;-67
2023/08/30 07:47:43;;;;;;;;;;;;;;;19.94;48.15;96316.78;4218107;28;5799;-65
2023/08/30 07:49:45;;;;;;;;;;;;;;;19.95;47.99;96321.06;4231316;28;5605;-61
2023/08/30 07:51:49;;;;;;;;;;;;;;;19.98;48.05;96317.06;4217659;28;5677;-62
2023/08/30 07:53:51;;;;;;;;;;;;;;;19.99;47.95;96316.78;4237397;27;5705;-68
2023/08/30 07:55:55;;;;;;;;;;;;;;;20.00;48.18;96315.72;4230998;27;5653;-69
2023/08/30 07:57:57;;;;;;;;;;;;;;;20.02;47.83;96315.44;4234852;27;5670;-63
2023/08/30 08:00:01;;;;;;;;;;;;;;;20.04;48.03;96318.66;4225125;27;5649;-59
2023/08/30 08:02:06;;;;;;;;;;;;;;;20.05;48.09;96325.66;4217624;28;5673;-60
2023/08/30 08:04:11;;;;;;;;;;;;;;;20.07;47.91;96331.56;4224780;28;5606;-59
2023/08/30 08:06:14;;;;;;;;;;;;;;;20.09;47.85;96325.94;4238850;27;5598;-65
2023/08/30 08:08:18;;;;;;;;;;;;;;;20.11;47.64;96327.28;4228522;27;5710;-60
2023/08/30 08:10:22;;;;;;;;;;;;;;;20.13;47.74;96329.69;4241574;27;5717;-59
2023/08/30 08:12:25;;;;;;;;;;;;;;;20.15;47.76;96328.34;4217840;28;5665;-59
2023/08/30 08:14:28;;;;;;;;;;;;;;;20.16;47.86;96327.31;4233485;28;5590;-60
2023/08/30 08:16:32;;;;;;;;;;;;;;;20.17;47.55;96328.91;4225745;28;5669;-60
2023/08/30 08:18:35;;;;;;;;;;;;;;;20.19;47.81;96332.13;4234943;27;5599;-63
2023/08/30 08:20:40;;;;;;;;;;;;;;;20.22;47.78;96334.28;4227133;27;5871;-63
2023/08/30 08:22:43;;;;;;;;;;;;;;;20.22;47.75;96334.28;4238167;27;5590;-62
2023/08/30 08:24:46;;;;;;;;;;;;;;;20.23;48.01;96327.84;4236709;27;5665;-59
2023/08/30 08:26:49;;;;;;;;;;;;;;;20.24;47.87;96329.44;4230302;27;5778;-60
2023/08/30 08:28:52;;;;;;;;;;;;;;;20.26;47.93;96329.97;4242632;27;5606;-59
2023/08/30 08:30:55;;;;;;;;;;;;;;;20.26;47.95;96335.34;4229437;27;5578;-60
2023/08/30 08:32:59;;;;;;;;;;;;;;;20.25;48.17;96336.44;4229557;27;5601;-63
2023/08/30 08:35:02;;;;;;;;;;;;;;;20.26;47.95;96335.34;4227191;27;5725;-60
2023/08/30 08:37:07;;;;;;;;;;;;;;;20.25;47.80;96339.09;4231230;27;5828;-59
2023/08/30 08:39:10;;;;;;;;;;;;;;;20.25;48.01;96347.16;4230525;27;5692;-60
2023/08/30 08:41:16;;;;;;;;;;;;;;;20.23;48.19;96348.50;4234553;28;5622;-62
2023/08/30 08:43:20;;;;;;;;;;;;;;;20.25;48.04;96346.34;4234307;28;5769;-60
2023/08/30 08:45:24;;;;;;;;;;;;;;;20.26;47.92;96339.91;4234377;28;5623;-63
2023/08/30 08:47:30;;;;;;;;;;;;;;;20.29;48.29;96347.47;4234362;28;5692;-59
2023/08/30 08:49:33;;;;;;;;;;;;;;;20.31;48.13;96335.38;4234221;28;8431;-59
2023/08/30 08:51:36;;;;;;;;;;;;;;;20.34;48.14;96350.94;4225643;28;5080;-60
2023/08/30 08:53:42;;;;;;;;;;;;;;;20.34;48.16;96334.84;4234580;28;5590;-60
2023/08/30 08:55:46;;;;;;;;;;;;;;;20.36;48.32;96346.09;4234085;28;5602;-59
2023/08/30 08:57:49;;;;;;;;;;;;;;;20.38;48.10;96353.09;4231096;28;5612;-58
2023/08/30 08:59:53;;;;;;;;;;;;;;;20.37;48.40;96344.22;4220922;28;5602;-58
2023/08/30 09:01:56;;;;;;;;;;;;;;;20.38;48.26;96353.09;4234200;28;5809;-58
2023/08/30 09:03:59;;;;;;;;;;;;;;;20.38;48.32;96355.78;4234343;28;5605;-58
2023/08/30 09:06:04;;;;;;;;;;;;;;;20.40;48.38;96353.66;4220752;28;5613;-58
2023/08/30 09:08:07;;;;;;;;;;;;;;;20.40;48.41;96354.47;4217087;28;5734;-58
2023/08/30 09:10:12;;;;;;;;;;;;;;;20.42;48.47;96343.44;4217056;28;5641;-58
2023/08/30 09:12:15;;;;;;;;;;;;;;;20.42;48.52;96349.66;4230841;27;5575;-58
2023/08/30 09:14:18;;;;;;;;;;;;;;;20.42;48.50;96351.50;4251228;27;5777;-58
2023/08/30 09:16:20;;;;;;;;;;;;;;;20.44;48.51;96349.38;4251099;27;5767;-58
2023/08/30 09:18:27;;;;;;;;;;;;;;;20.47;48.63;96343.47;4250834;27;5583;-58
2023/08/30 09:20:30;;;;;;;;;;;;;;;20.49;48.54;96347.50;4250297;27;5653;-58
2023/08/30 09:22:37;;;;;;;;;;;;;;;20.47;48.50;96351.53;4235640;27;5579;-58
2023/08/30 09:24:41;;;;;;;;;;;;;;;20.47;48.67;96338.09;4250887;27;5708;-58
2023/08/30 09:26:49;;;;;;;;;;;;;;;20.47;48.57;96346.97;4250954;27;5578;-59
2023/08/30 09:28:52;;;;;;;;;;;;;;;20.48;49.04;96353.13;4251010;27;5677;-58
2023/08/30 09:30:55;;;;;;;;;;;;;;;20.48;49.02;96347.78;4251101;27;5768;-58
2023/08/30 09:33:04;;;;;;;;;;;;;;;20.48;49.07;96339.72;4251314;27;5710;-59
2023/08/30 09:35:09;;;;;;;;;;;;;;;20.44;49.04;96335.97;4251093;27;5571;-58
2023/08/30 09:37:20;;;;;;;;;;;;;;;20.42;49.25;96340.78;4221166;27;5756;-58
2023/08/30 09:39:23;;;;;;;;;;;;;;;20.42;49.14;96330.03;4216935;28;5752;-60
2023/08/30 09:41:26;;;;;;;;;;;;;;;20.42;49.23;96338.09;4220559;28;6202;-58
2023/08/30 09:43:31;;;;;;;;;;;;;;;20.42;49.24;96336.22;4227144;27;6452;-58
2023/08/30 09:45:34;;;;;;;;;;;;;;;20.45;49.45;96340.25;4243711;27;5850;-58
2023/08/30 09:47:37;;;;;;;;;;;;;;;20.46;49.35;96334.63;4221644;27;5692;-58
2023/08/30 09:49:45;;;;;;;;;;;;;;;20.49;49.37;96330.59;4220647;27;5602;-59
2023/08/30 09:51:49;;;;;;;;;;;;;;;20.49;49.57;96336.75;4225407;27;5760;-58
2023/08/30 09:53:56;;;;;;;;;;;;;;;20.51;49.80;96333.84;4221293;28;5612;-58
2023/08/30 09:56:09;;;;;;;;;;;;;;;20.52;49.96;96330.06;4219889;28;5645;-59
2023/08/30 09:58:12;;;;;;;;;;;;;;;20.52;50.36;96325.50;4219714;28;5791;-59
2023/08/30 10:00:20;;;;;;;;;;;;;;;20.54;50.32;96336.78;4236769;27;5791;-59
2023/08/30 10:02:24;;;;;;;;;;;;;;;20.55;50.26;96329.53;4228085;28;5787;-59
2023/08/30 10:04:28;;;;;;;;;;;;;;;20.54;50.36;96333.28;4220017;28;5799;-58
2023/08/30 10:06:33;;;;;;;;;;;;;;;20.54;50.51;96330.59;4224841;28;5669;-58
2023/08/30 10:08:39;;;;;;;;;;;;;;;20.54;50.27;96327.91;4229066;28;5712;-58
2023/08/30 10:10:42;;;;;;;;;;;;;;;20.56;50.65;96337.31;4227698;28;5613;-59
2023/08/30 10:12:46;;;;;;;;;;;;;;;20.57;50.33;96328.19;4226161;27;5736;-58
2023/08/30 10:15:02;;;;;;;;;;;;;;;20.58;50.59;96329.00;4225510;27;5698;-59
2023/08/30 10:17:10;;;;;;;;;;;;;;;20.59;50.47;96325.22;4236365;27;5586;-59
2023/08/30 10:19:17;;;;;;;;;;;;;;;20.60;50.74;96321.47;4248395;27;5603;-58
2023/08/30 10:21:21;;;;;;;;;;;;;;;20.60;50.54;96322.28;4244647;27;5651;-59
2023/08/30 10:23:25;;;;;;;;;;;;;;;20.60;50.53;96327.63;4241818;27;5715;-58
2023/08/30 10:25:32;;;;;;;;;;;;;;;20.60;50.65;96326.84;4224502;28;6335;-59
2023/08/30 10:27:38;;;;;;;;;;;;;;;20.59;50.93;96326.03;4229089;28;5823;-58
2023/08/30 10:29:43;;;;;;;;;;;;;;;20.59;50.50;96320.66;4235815;28;5606;-58
2023/08/30 10:31:46;;;;;;;;;;;;;;;20.60;50.41;96326.84;4236372;28;5692;-59
2023/08/30 10:33:51;;;;;;;;;;;;;;;20.59;50.52;96322.53;4236706;28;5706;-59
2023/08/30 10:35:55;;;;;;;;;;;;;;;20.59;50.62;96315.28;4236554;28;5611;-58
2023/08/30 10:38:00;;;;;;;;;;;;;;;20.61;50.52;96312.34;4222968;28;5616;-59
2023/08/30 10:40:04;;;;;;;;;;;;;;;20.63;50.67;96315.59;4219296;28;5624;-59
2023/08/30 10:42:11;;;;;;;;;;;;;;;20.65;50.46;96318.81;4225170;28;5594;-59
2023/08/30 10:44:15;;;;;;;;;;;;;;;20.68;50.37;96312.06;4236527;28;5598;-59
2023/08/30 10:46:18;;;;;;;;;;;;;;;20.71;50.53;96306.97;4229129;28;5616;-59
2023/08/30 10:48:22;;;;;;;;;;;;;;;20.74;50.31;96305.66;4219490;28;5613;-59
2023/08/30 10:50:34;;;;;;;;;;;;;;;20.75;50.37;96301.88;4219192;28;5685;-59
2023/08/30 10:52:38;;;;;;;;;;;;;;;20.77;50.37;96305.91;4239154;27;7675;-59
2023/08/30 10:54:42;;;;;;;;;;;;;;;20.81;50.27;96306.16;4253035;27;5678;-59
2023/08/30 10:56:50;;;;;;;;;;;;;;;20.81;50.02;96301.59;4253236;27;5599;-60
2023/08/30 10:58:52;;;;;;;;;;;;;;;20.85;50.26;96297.31;4253368;27;5604;-59
2023/08/30 11:00:55;;;;;;;;;;;;;;;20.88;49.81;96296.75;4245020;27;5799;-59
2023/08/30 11:02:58;;;;;;;;;;;;;;;20.91;49.94;96292.72;4227919;27;5591;-59
2023/08/30 11:05:03;;;;;;;;;;;;;;;20.94;49.99;96295.66;4253052;27;5583;-59
2023/08/30 11:07:08;;;;;;;;;;;;;;;20.99;49.78;96296.75;4225014;27;5685;-59
2023/08/30 11:09:11;;;;;;;;;;;;;;;21.00;49.64;96292.97;4247656;27;5862;-59
2023/08/30 11:11:15;;;;;;;;;;;;;;;21.03;49.94;96292.44;4235686;27;5633;-59
2023/08/30 11:13:17;;;;;;;;;;;;;;;21.07;49.62;96301.59;4238525;27;5677;-59
2023/08/30 11:15:21;;;;;;;;;;;;;;;21.09;49.66;96297.53;4219034;28;5669;-59
2023/08/30 11:17:25;;;;;;;;;;;;;;;21.10;49.69;96288.41;4235655;27;5668;-59
2023/08/30 11:19:31;;;;;;;;;;;;;;;21.13;49.81;96298.59;4235809;27;5575;-59
2023/08/30 11:21:36;;;;;;;;;;;;;;;21.16;49.54;96298.03;4252986;27;5671;-59
2023/08/30 11:23:40;;;;;;;;;;;;;;;21.16;49.55;96291.88;4252917;27;5655;-59
2023/08/30 11:25:43;;;;;;;;;;;;;;;21.17;49.61;96299.66;4251131;27;5619;-59
2023/08/30 11:27:47;;;;;;;;;;;;;;;21.21;49.56;96298.06;4228941;28;5708;-59
2023/08/30 11:29:50;;;;;;;;;;;;;;;21.22;49.47;96296.16;4235127;28;5728;-59
2023/08/30 11:31:54;;;;;;;;;;;;;;;21.21;49.47;96299.94;4235341;28;5594;-59
2023/08/30 11:33:59;;;;;;;;;;;;;;;21.21;49.27;96298.06;4231287;28;5814;-59
2023/08/30 11:36:02;;;;;;;;;;;;;;;21.22;49.09;96288.91;4231763;28;6275;-59
2023/08/30 11:38:04;;;;;;;;;;;;;;;21.21;49.11;96291.88;4235249;28;5737;-59
2023/08/30 11:40:12;;;;;;;;;;;;;;;21.21;48.90;96295.38;4220909;28;5696;-59
2023/08/30 11:42:15;;;;;;;;;;;;;;;21.22;49.33;96296.16;4230021;28;5594;-58
2023/08/30 11:44:23;;;;;;;;;;;;;;;21.23;48.96;96298.56;4232435;28;5780;-58
2023/08/30 11:46:26;;;;;;;;;;;;;;;21.25;48.87;96295.63;4218455;28;5692;-58
2023/08/30 11:48:30;;;;;;;;;;;;;;;21.23;48.64;96297.78;4220996;28;5613;-58
2023/08/30 11:50:33;;;;;;;;;;;;;;;21.25;48.94;96294.81;4230799;28;5602;-59
2023/08/30 11:52:50;;;;;;;;;;;;;;;21.26;48.58;96297.25;4233026;28;5631;-59
2023/08/30 11:54:54;;;;;;;;;;;;;;;21.28;48.26;96294.28;4231594;28;5726;-58
2023/08/30 11:56:58;;;;;;;;;;;;;;;21.29;48.30;96294.00;4221362;28;5751;-58
2023/08/30 11:59:02;;;;;;;;;;;;;;;21.30;48.35;96287.59;4226607;28;5794;-59
2023/08/30 12:01:06;;;;;;;;;;;;;;;21.33;48.64;96281.66;4227464;27;5606;-58
2023/08/30 12:03:09;;;;;;;;;;;;;;;21.35;48.48;96279.50;4227694;28;5617;-59
2023/08/30 12:05:14;;;;;;;;;;;;;;;21.37;48.15;96282.69;4225321;28;5708;-58
2023/08/30 12:07:23;;;;;;;;;;;;;;;21.38;48.42;96275.44;4223005;28;5812;-58
2023/08/30 12:09:31;;;;;;;;;;;;;;;21.39;48.02;96272.47;4233895;28;5606;-59
2023/08/30 12:11:34;;;;;;;;;;;;;;;21.41;48.20;96283.78;4228306;28;5610;-58
2023/08/30 12:13:38;;;;;;;;;;;;;;;21.45;48.03;96282.16;4229287;28;6418;-59
2023/08/30 12:15:41;;;;;;;;;;;;;;;21.48;48.17;96278.09;4226410;28;5601;-59
2023/08/30 12:17:44;;;;;;;;;;;;;;;21.50;48.19;96268.66;4226960;28;5738;-59
2023/08/30 12:19:47;;;;;;;;;;;;;;;21.55;47.97;96267.06;4229123;28;7802;-58
2023/08/30 12:21:50;;;;;;;;;;;;;;;21.57;48.22;96275.66;4230447;28;5715;-58
2023/08/30 12:24:03;;;;;;;;;;;;;;;21.60;47.92;96265.13;4226133;28;5836;-59
2023/08/30 12:26:08;;;;;;;;;;;;;;;21.64;48.07;96266.22;4231050;28;5743;-58
2023/08/30 12:28:11;;;;;;;;;;;;;;;21.67;47.85;96271.03;4224895;28;5719;-59
2023/08/30 12:30:16;;;;;;;;;;;;;;;21.71;47.57;96273.97;4225644;28;5815;-59
2023/08/30 12:32:19;;;;;;;;;;;;;;;21.78;47.36;96279.88;4224484;28;5621;-59
2023/08/30 12:34:22;;;;;;;;;;;;;;;21.78;47.33;96277.97;4218275;28;6045;-58
2023/08/30 12:36:25;;;;;;;;;;;;;;;21.79;47.50;96282.28;4234415;28;5594;-59
2023/08/30 12:38:28;;;;;;;;;;;;;;;21.80;47.27;96281.19;4225803;28;5119;-58
2023/08/30 12:40:31;;;;;;;;;;;;;;;21.80;47.54;96277.69;4225188;28;5700;-59
2023/08/30 12:42:34;;;;;;;;;;;;;;;21.80;47.24;96283.06;4218013;28;6329;-58
2023/08/30 12:44:37;;;;;;;;;;;;;;;21.80;47.69;96281.19;4232939;28;5613;-59
2023/08/30 12:46:41;;;;;;;;;;;;;;;21.83;47.54;96273.63;4217660;28;5736;-58
2023/08/30 12:48:44;;;;;;;;;;;;;;;21.86;47.50;96275.75;4217779;28;5737;-59
2023/08/30 12:50:49;;;;;;;;;;;;;;;21.86;47.42;96279.28;4228799;28;6514;-58
2023/08/30 12:52:51;;;;;;;;;;;;;;;21.91;47.33;96286.53;4234558;28;5666;-58
2023/08/30 12:54:54;;;;;;;;;;;;;;;21.91;47.15;96284.63;4225597;28;5689;-59
2023/08/30 12:56:57;;;;;;;;;;;;;;;21.91;47.14;96284.63;4225751;28;5594;-59
2023/08/30 12:59:00;;;;;;;;;;;;;;;21.92;47.05;96291.63;4225977;28;5594;-59
2023/08/30 13:01:04;;;;;;;;;;;;;;;21.94;46.88;96289.44;4234551;28;5590;-59
2023/08/30 13:03:08;;;;;;;;;;;;;;;21.97;46.97;96286.22;4234457;28;5610;-59
2023/08/30 13:05:12;;;;;;;;;;;;;;;21.98;46.93;96285.16;4219576;28;5605;-58
2023/08/30 13:07:15;;;;;;;;;;;;;;;21.98;46.25;96277.06;4230674;27;5670;-58
2023/08/30 13:09:17;;;;;;;;;;;;;;;21.98;46.11;96282.44;4251339;27;5576;-59
2023/08/30 13:11:20;;;;;;;;;;;;;;;21.98;46.08;96279.75;4234302;27;5603;-59
2023/08/30 13:13:23;;;;;;;;;;;;;;;21.97;46.40;96285.41;4251304;27;5630;-59
2023/08/30 13:15:26;;;;;;;;;;;;;;;21.97;46.02;96283.53;4217597;27;5666;-59
2023/08/30 13:17:29;;;;;;;;;;;;;;;21.96;46.33;96281.91;4217951;27;5657;-58
2023/08/30 13:19:34;;;;;;;;;;;;;;;21.97;45.77;96280.00;4249827;27;6284;-58
2023/08/30 13:21:37;;;;;;;;;;;;;;;21.97;45.78;96278.16;4236825;27;5670;-59
2023/08/30 13:23:43;;;;;;;;;;;;;;;21.97;45.61;96280.00;4251381;27;5078;-59
2023/08/30 13:25:46;;;;;;;;;;;;;;;21.97;46.03;96271.94;4251091;27;5638;-59
2023/08/30 13:27:48;;;;;;;;;;;;;;;21.98;45.31;96273.56;4251265;27;5731;-59
2023/08/30 13:29:51;;;;;;;;;;;;;;;21.96;45.48;96268.44;4235746;27;5602;-58
2023/08/30 13:31:54;;;;;;;;;;;;;;;21.97;45.36;96274.63;4237483;27;5579;-58
2023/08/30 13:33:56;;;;;;;;;;;;;;;21.99;45.71;96267.09;4228930;27;5370;-60
2023/08/30 13:36:00;;;;;;;;;;;;;;;21.99;45.25;96267.91;4237421;27;5763;-59
2023/08/30 13:38:04;;;;;;;;;;;;;;;22.02;45.32;96271.91;4247616;27;5616;-58
2023/08/30 13:40:08;;;;;;;;;;;;;;;22.00;45.63;96274.91;4243018;27;5787;-58
2023/08/30 13:42:11;;;;;;;;;;;;;;;21.99;45.42;96273.28;4232875;27;5678;-59
2023/08/30 13:44:14;;;;;;;;;;;;;;;22.00;45.62;96274.09;4254533;27;5583;-59
2023/08/30 13:46:17;;;;;;;;;;;;;;;22.00;45.34;96274.91;4254609;27;5583;-58
2023/08/30 13:48:20;;;;;;;;;;;;;;;21.98;45.60;96274.38;4222235;27;5701;-59
2023/08/30 13:50:23;;;;;;;;;;;;;;;21.97;45.08;96278.16;4220351;28;5752;-58
2023/08/30 13:52:29;;;;;;;;;;;;;;;21.97;45.41;96269.25;4236909;27;5607;-58
2023/08/30 13:54:31;;;;;;;;;;;;;;;21.95;45.44;96272.22;4254089;27;5604;-58
2023/08/30 13:56:33;;;;;;;;;;;;;;;21.96;45.39;96273.81;4237268;27;5691;-59
2023/08/30 13:58:37;;;;;;;;;;;;;;;21.95;45.21;96274.91;4251359;27;5591;-58
2023/08/30 14:00:39;;;;;;;;;;;;;;;21.96;45.08;96270.34;4240851;27;5711;-58
2023/08/30 14:02:42;;;;;;;;;;;;;;;21.97;45.42;96267.38;4249715;27;5665;-60
2023/08/30 14:04:45;;;;;;;;;;;;;;;21.99;44.94;96275.19;4236951;27;5685;-60
2023/08/30 14:06:48;;;;;;;;;;;;;;;22.00;45.30;96279.47;4226220;27;6305;-59
2023/08/30 14:08:53;;;;;;;;;;;;;;;22.02;45.14;96275.41;4236574;27;5682;-59
2023/08/30 14:10:56;;;;;;;;;;;;;;;22.03;45.23;96274.34;4253916;27;5600;-59
2023/08/30 14:12:59;;;;;;;;;;;;;;;22.02;44.96;96280.81;4236992;27;5579;-59
2023/08/30 14:15:02;;;;;;;;;;;;;;;22.00;45.06;96277.59;4236790;27;5575;-59
2023/08/30 14:17:05;;;;;;;;;;;;;;;22.02;44.85;96269.22;4236763;27;5607;-58
2023/08/30 14:19:09;;;;;;;;;;;;;;;22.01;44.88;96270.31;4224738;27;8461;-59
2023/08/30 14:21:13;;;;;;;;;;;;;;;22.02;44.81;96280.81;4219925;28;5789;-58
2023/08/30 14:23:16;;;;;;;;;;;;;;;22.01;44.62;96283.78;4233762;27;5607;-58
2023/08/30 14:25:20;;;;;;;;;;;;;;;22.01;44.62;96276.50;4239002;27;6381;-58
2023/08/30 14:27:23;;;;;;;;;;;;;;;22.02;44.59;96280.81;4235789;27;5674;-58
2023/08/30 14:29:26;;;;;;;;;;;;;;;22.02;44.56;96271.91;4220073;28;6677;-58
2023/08/30 14:31:30;;;;;;;;;;;;;;;22.02;44.52;96269.22;4228399;28;5687;-59
2023/08/30 14:33:33;;;;;;;;;;;;;;;22.02;44.47;96270.03;4227826;28;5612;-59
2023/08/30 14:35:41;;;;;;;;;;;;;;;22.04;44.75;96273.25;4235164;28;5697;-58
2023/08/30 14:37:44;;;;;;;;;;;;;;;22.04;44.76;96275.94;4222025;28;5675;-59
2023/08/30 14:39:47;;;;;;;;;;;;;;;22.06;44.61;96267.63;4227430;28;5610;-58
2023/08/30 14:41:51;;;;;;;;;;;;;;;22.05;44.56;96264.09;4236486;28;5574;-58
2023/08/30 14:43:55;;;;;;;;;;;;;;;22.05;44.42;96266.78;4232480;28;5613;-59
2023/08/30 14:46:00;;;;;;;;;;;;;;;22.06;44.40;96263.03;4227838;28;5763;-58
2023/08/30 14:48:12;;;;;;;;;;;;;;;22.06;44.58;96273.78;4236282;27;5669;-57
2023/08/30 14:50:16;;;;;;;;;;;;;;;22.06;44.60;96263.03;4219305;28;5764;-59
2023/08/30 14:52:19;;;;;;;;;;;;;;;22.06;44.18;96273.78;4219466;28;5680;-58
2023/08/30 14:54:23;;;;;;;;;;;;;;;22.07;44.41;96278.09;4234908;27;5819;-58
2023/08/30 14:56:26;;;;;;;;;;;;;;;22.07;44.19;96278.09;4236585;27;5821;-58
2023/08/30 14:58:30;;;;;;;;;;;;;;;22.07;44.32;96278.09;4218809;28;5680;-59
2023/08/30 15:00:33;;;;;;;;;;;;;;;22.08;44.43;96281.59;4227244;27;5689;-59
2023/08/30 15:02:36;;;;;;;;;;;;;;;22.09;44.31;96272.47;4232253;27;5697;-59
2023/08/30 15:04:40;;;;;;;;;;;;;;;22.07;44.04;96278.09;4230342;27;5780;-59
2023/08/30 15:06:43;;;;;;;;;;;;;;;22.07;44.38;96285.38;4230085;27;5736;-59
2023/08/30 15:08:46;;;;;;;;;;;;;;;22.06;44.41;96284.56;4229570;27;5814;-58
2023/08/30 15:10:51;;;;;;;;;;;;;;;22.05;44.04;96282.94;4231750;27;5659;-59
2023/08/30 15:12:54;;;;;;;;;;;;;;;22.04;43.98;96289.41;4226543;27;5614;-59
2023/08/30 15:14:58;;;;;;;;;;;;;;;22.05;44.00;96293.69;4232716;28;6382;-59
2023/08/30 15:17:02;;;;;;;;;;;;;;;22.04;44.26;96281.31;4212010;28;5676;-59
2023/08/30 15:19:05;;;;;;;;;;;;;;;22.04;44.27;96281.31;4227897;27;5779;-59
2023/08/30 15:21:08;;;;;;;;;;;;;;;22.04;44.03;96281.31;4229798;27;5748;-60
2023/08/30 15:23:16;;;;;;;;;;;;;;;22.03;43.83;96279.72;4229034;27;5595;-59
2023/08/30 15:25:20;;;;;;;;;;;;;;;22.03;44.07;96279.72;4226231;27;5612;-59
2023/08/30 15:27:23;;;;;;;;;;;;;;;22.03;44.31;96279.72;4230365;27;5696;-59
2023/08/30 15:29:26;;;;;;;;;;;;;;;22.04;43.93;96280.53;4221158;28;5681;-59
2023/08/30 15:31:31;;;;;;;;;;;;;;;22.02;43.76;96280.81;4221454;28;5617;-59
2023/08/30 15:33:34;;;;;;;;;;;;;;;22.00;43.99;96280.28;4220547;27;5696;-59
2023/08/30 15:35:38;;;;;;;;;;;;;;;22.00;44.17;96282.97;4225760;28;5629;-59
2023/08/30 15:37:42;;;;;;;;;;;;;;;21.99;43.74;96283.25;4225025;28;7682;-59
2023/08/30 15:39:45;;;;;;;;;;;;;;;22.00;43.85;96282.16;4223581;28;5618;-59
2023/08/30 15:41:49;;;;;;;;;;;;;;;21.98;44.11;96282.44;4223558;28;5594;-59
2023/08/30 15:43:51;;;;;;;;;;;;;;;21.97;44.14;96288.91;4222573;28;5743;-60
2023/08/30 15:45:55;;;;;;;;;;;;;;;21.97;44.06;96296.16;4228623;28;5081;-60
2023/08/30 15:47:59;;;;;;;;;;;;;;;21.97;43.60;96288.09;4223801;28;5625;-59
2023/08/30 15:50:02;;;;;;;;;;;;;;;21.96;44.00;96291.84;4227894;28;5616;-59
2023/08/30 15:52:06;;;;;;;;;;;;;;;21.94;44.08;96294.84;4227259;28;5740;-58
2023/08/30 15:54:09;;;;;;;;;;;;;;;21.93;43.70;96285.16;4223971;28;5757;-60
2023/08/30 15:56:12;;;;;;;;;;;;;;;21.94;43.95;96286.75;4229770;28;5606;-59
2023/08/30 15:58:16;;;;;;;;;;;;;;;21.94;43.57;96291.34;4221746;28;6293;-58
2023/08/30 16:00:20;;;;;;;;;;;;;;;21.94;43.73;96291.34;4229645;28;5602;-59
2023/08/30 16:02:23;;;;;;;;;;;;;;;21.93;43.77;96289.72;4235071;28;5621;-59
2023/08/30 16:04:28;;;;;;;;;;;;;;;21.93;43.62;96295.91;4234640;28;5598;-59
2023/08/30 16:06:36;;;;;;;;;;;;;;;21.93;43.52;96289.72;4225214;28;5614;-58
2023/08/30 16:08:39;;;;;;;;;;;;;;;21.93;43.48;96293.22;4229799;28;5626;-59
2023/08/30 16:10:42;;;;;;;;;;;;;;;21.93;43.56;96290.53;4228284;28;5626;-58
2023/08/30 16:12:45;;;;;;;;;;;;;;;21.92;43.77;96297.00;4219079;28;5701;-59